sensor_id;sensor_type;location;lat;lon;timestamp;P1;durP1;ratioP1;P2;durP2;ratioP2
52124;SDS011;38119;52.710;6.398;2022-09-24T00:00:55;50.70;;;33.22;;
52124;SDS011;38119;52.710;6.398;2022-09-24T00:03:22;49.10;;;32.83;;
52124;SDS011;38119;52.710;6.398;2022-09-24T00:05:49;41.90;;;31.52;;
52124;SDS011;38119;52.710;6.398;2022-09-24T00:08:15;45.67;;;31.90;;
52124;SDS011;38119;52.710;6.398;2022-09-24T00:10:44;42.97;;;31.38;;
52124;SDS011;38119;52.710;6.398;2022-09-24T00:13:12;43.78;;;32.08;;
52124;SDS011;38119;52.710;6.398;2022-09-24T00:15:39;45.45;;;32.85;;
52124;SDS011;38119;52.710;6.398;2022-09-24T00:18:07;46.60;;;31.90;;
52124;SDS011;38119;52.710;6.398;2022-09-24T00:20:34;45.25;;;32.47;;
52124;SDS011;38119;52.710;6.398;2022-09-24T00:23:00;47.92;;;33.88;;
52124;SDS011;38119;52.710;6.398;2022-09-24T00:25:26;49.22;;;33.45;;
52124;SDS011;38119;52.710;6.398;2022-09-24T00:28:11;45.58;;;32.97;;
52124;SDS011;38119;52.710;6.398;2022-09-24T00:30:38;41.08;;;30.17;;
52124;SDS011;38119;52.710;6.398;2022-09-24T00:33:05;44.50;;;32.40;;
52124;SDS011;38119;52.710;6.398;2022-09-24T00:35:34;47.67;;;33.05;;
52124;SDS011;38119;52.710;6.398;2022-09-24T00:38:01;45.03;;;32.40;;
52124;SDS011;38119;52.710;6.398;2022-09-24T00:40:33;45.92;;;32.58;;
52124;SDS011;38119;52.710;6.398;2022-09-24T00:43:00;50.15;;;33.05;;
52124;SDS011;38119;52.710;6.398;2022-09-24T00:45:29;47.63;;;32.92;;
52124;SDS011;38119;52.710;6.398;2022-09-24T00:47:55;44.25;;;32.80;;
52124;SDS011;38119;52.710;6.398;2022-09-24T00:50:29;47.28;;;33.33;;
52124;SDS011;38119;52.710;6.398;2022-09-24T00:53:08;52.58;;;32.25;;
52124;SDS011;38119;52.710;6.398;2022-09-24T00:55:37;47.03;;;33.10;;
52124;SDS011;38119;52.710;6.398;2022-09-24T00:58:05;44.83;;;31.77;;
52124;SDS011;38119;52.710;6.398;2022-09-24T01:00:33;45.20;;;32.47;;
52124;SDS011;38119;52.710;6.398;2022-09-24T01:03:02;42.80;;;30.48;;
52124;SDS011;38119;52.710;6.398;2022-09-24T01:05:31;43.95;;;31.13;;
52124;SDS011;38119;52.710;6.398;2022-09-24T01:07:57;44.25;;;31.85;;
52124;SDS011;38119;52.710;6.398;2022-09-24T01:10:27;43.50;;;30.98;;
52124;SDS011;38119;52.710;6.398;2022-09-24T01:13:26;43.92;;;31.67;;
52124;SDS011;38119;52.710;6.398;2022-09-24T01:16:23;48.38;;;32.35;;
52124;SDS011;38119;52.710;6.398;2022-09-24T01:21:55;43.00;;;31.52;;
52124;SDS011;38119;52.710;6.398;2022-09-24T01:24:40;44.22;;;31.88;;
52124;SDS011;38119;52.710;6.398;2022-09-24T01:27:16;49.83;;;32.65;;
52124;SDS011;38119;52.710;6.398;2022-09-24T01:29:56;47.88;;;32.00;;
52124;SDS011;38119;52.710;6.398;2022-09-24T01:32:44;42.13;;;31.17;;
52124;SDS011;38119;52.710;6.398;2022-09-24T01:35:20;43.08;;;31.20;;
52124;SDS011;38119;52.710;6.398;2022-09-24T01:37:57;45.05;;;30.50;;
52124;SDS011;38119;52.710;6.398;2022-09-24T01:40:27;44.30;;;31.85;;
52124;SDS011;38119;52.710;6.398;2022-09-24T01:42:54;42.90;;;31.33;;
52124;SDS011;38119;52.710;6.398;2022-09-24T01:45:22;48.13;;;30.80;;
52124;SDS011;38119;52.710;6.398;2022-09-24T01:47:51;43.45;;;30.90;;
52124;SDS011;38119;52.710;6.398;2022-09-24T01:50:17;45.13;;;31.40;;
52124;SDS011;38119;52.710;6.398;2022-09-24T01:52:49;44.67;;;30.77;;
52124;SDS011;38119;52.710;6.398;2022-09-24T01:55:31;43.00;;;29.52;;
52124;SDS011;38119;52.710;6.398;2022-09-24T01:58:09;43.20;;;30.70;;
52124;SDS011;38119;52.710;6.398;2022-09-24T02:00:40;43.70;;;30.25;;
52124;SDS011;38119;52.710;6.398;2022-09-24T02:03:10;46.67;;;31.67;;
52124;SDS011;38119;52.710;6.398;2022-09-24T02:08:36;42.58;;;30.30;;
52124;SDS011;38119;52.710;6.398;2022-09-24T02:11:02;42.70;;;30.77;;
52124;SDS011;38119;52.710;6.398;2022-09-24T02:13:37;45.65;;;29.90;;
52124;SDS011;38119;52.710;6.398;2022-09-24T02:16:11;42.47;;;30.10;;
52124;SDS011;38119;52.710;6.398;2022-09-24T02:18:41;47.45;;;30.90;;
52124;SDS011;38119;52.710;6.398;2022-09-24T02:21:12;41.95;;;29.00;;
52124;SDS011;38119;52.710;6.398;2022-09-24T02:23:42;46.05;;;30.77;;
52124;SDS011;38119;52.710;6.398;2022-09-24T02:26:13;42.92;;;28.77;;
52124;SDS011;38119;52.710;6.398;2022-09-24T02:28:39;42.30;;;30.58;;
52124;SDS011;38119;52.710;6.398;2022-09-24T02:31:17;52.50;;;30.25;;
52124;SDS011;38119;52.710;6.398;2022-09-24T02:33:48;46.97;;;31.05;;
52124;SDS011;38119;52.710;6.398;2022-09-24T02:36:33;44.95;;;30.75;;
52124;SDS011;38119;52.710;6.398;2022-09-24T02:39:00;46.40;;;31.80;;
52124;SDS011;38119;52.710;6.398;2022-09-24T02:41:27;44.65;;;29.10;;
52124;SDS011;38119;52.710;6.398;2022-09-24T02:43:55;48.58;;;32.15;;
52124;SDS011;38119;52.710;6.398;2022-09-24T02:46:20;47.80;;;32.28;;
52124;SDS011;38119;52.710;6.398;2022-09-24T02:48:46;42.33;;;30.00;;
52124;SDS011;38119;52.710;6.398;2022-09-24T02:51:12;46.15;;;31.20;;
52124;SDS011;38119;52.710;6.398;2022-09-24T02:53:37;44.92;;;31.77;;
52124;SDS011;38119;52.710;6.398;2022-09-24T02:56:03;44.88;;;30.50;;
52124;SDS011;38119;52.710;6.398;2022-09-24T02:58:29;43.97;;;30.40;;
52124;SDS011;38119;52.710;6.398;2022-09-24T03:00:55;49.92;;;32.25;;
52124;SDS011;38119;52.710;6.398;2022-09-24T03:03:24;45.17;;;30.83;;
52124;SDS011;38119;52.710;6.398;2022-09-24T03:05:50;46.67;;;31.60;;
52124;SDS011;38119;52.710;6.398;2022-09-24T03:08:17;45.45;;;31.40;;
52124;SDS011;38119;52.710;6.398;2022-09-24T03:10:43;44.30;;;31.23;;
52124;SDS011;38119;52.710;6.398;2022-09-24T03:13:10;43.05;;;30.08;;
52124;SDS011;38119;52.710;6.398;2022-09-24T03:15:36;45.92;;;30.40;;
52124;SDS011;38119;52.710;6.398;2022-09-24T03:18:02;42.38;;;30.10;;
52124;SDS011;38119;52.710;6.398;2022-09-24T03:20:28;42.20;;;29.85;;
52124;SDS011;38119;52.710;6.398;2022-09-24T03:22:53;44.95;;;30.77;;
52124;SDS011;38119;52.710;6.398;2022-09-24T03:25:19;41.13;;;30.05;;
52124;SDS011;38119;52.710;6.398;2022-09-24T03:27:45;44.67;;;30.30;;
52124;SDS011;38119;52.710;6.398;2022-09-24T03:30:11;46.33;;;31.60;;
52124;SDS011;38119;52.710;6.398;2022-09-24T03:32:56;44.47;;;31.20;;
52124;SDS011;38119;52.710;6.398;2022-09-24T03:35:21;42.53;;;30.13;;
52124;SDS011;38119;52.710;6.398;2022-09-24T03:37:47;44.58;;;31.17;;
52124;SDS011;38119;52.710;6.398;2022-09-24T03:40:13;46.35;;;31.13;;
52124;SDS011;38119;52.710;6.398;2022-09-24T03:42:38;44.10;;;30.20;;
52124;SDS011;38119;52.710;6.398;2022-09-24T03:45:04;47.15;;;32.13;;
52124;SDS011;38119;52.710;6.398;2022-09-24T03:47:31;46.13;;;31.10;;
52124;SDS011;38119;52.710;6.398;2022-09-24T03:49:57;45.85;;;31.25;;
52124;SDS011;38119;52.710;6.398;2022-09-24T03:52:23;44.90;;;30.75;;
52124;SDS011;38119;52.710;6.398;2022-09-24T03:54:49;44.13;;;31.98;;
52124;SDS011;38119;52.710;6.398;2022-09-24T03:57:15;47.78;;;32.55;;
52124;SDS011;38119;52.710;6.398;2022-09-24T03:59:41;45.42;;;31.33;;
52124;SDS011;38119;52.710;6.398;2022-09-24T04:02:08;44.85;;;32.40;;
52124;SDS011;38119;52.710;6.398;2022-09-24T04:04:35;45.38;;;30.73;;
52124;SDS011;38119;52.710;6.398;2022-09-24T04:07:00;45.30;;;31.30;;
52124;SDS011;38119;52.710;6.398;2022-09-24T04:09:26;44.92;;;31.55;;
52124;SDS011;38119;52.710;6.398;2022-09-24T04:11:52;49.40;;;31.33;;
52124;SDS011;38119;52.710;6.398;2022-09-24T04:14:17;44.70;;;30.98;;
52124;SDS011;38119;52.710;6.398;2022-09-24T04:16:44;44.90;;;31.10;;
52124;SDS011;38119;52.710;6.398;2022-09-24T04:19:13;46.92;;;32.25;;
52124;SDS011;38119;52.710;6.398;2022-09-24T04:21:42;49.47;;;32.65;;
52124;SDS011;38119;52.710;6.398;2022-09-24T04:24:09;47.58;;;32.38;;
52124;SDS011;38119;52.710;6.398;2022-09-24T04:26:35;47.45;;;33.10;;
52124;SDS011;38119;52.710;6.398;2022-09-24T04:29:00;46.60;;;31.90;;
52124;SDS011;38119;52.710;6.398;2022-09-24T04:31:26;46.15;;;32.22;;
52124;SDS011;38119;52.710;6.398;2022-09-24T04:33:52;43.00;;;32.08;;
52124;SDS011;38119;52.710;6.398;2022-09-24T04:36:18;46.40;;;31.30;;
52124;SDS011;38119;52.710;6.398;2022-09-24T04:38:44;47.08;;;31.90;;
52124;SDS011;38119;52.710;6.398;2022-09-24T04:41:10;44.88;;;32.22;;
52124;SDS011;38119;52.710;6.398;2022-09-24T04:43:36;44.47;;;31.20;;
52124;SDS011;38119;52.710;6.398;2022-09-24T04:46:02;46.97;;;33.20;;
52124;SDS011;38119;52.710;6.398;2022-09-24T04:48:28;47.88;;;32.97;;
52124;SDS011;38119;52.710;6.398;2022-09-24T04:50:54;48.15;;;32.50;;
52124;SDS011;38119;52.710;6.398;2022-09-24T04:53:20;49.33;;;34.15;;
52124;SDS011;38119;52.710;6.398;2022-09-24T04:55:50;50.33;;;33.35;;
52124;SDS011;38119;52.710;6.398;2022-09-24T04:58:15;50.05;;;33.85;;
52124;SDS011;38119;52.710;6.398;2022-09-24T05:00:41;48.63;;;33.17;;
52124;SDS011;38119;52.710;6.398;2022-09-24T05:03:07;45.17;;;31.75;;
52124;SDS011;38119;52.710;6.398;2022-09-24T05:05:33;48.63;;;34.45;;
52124;SDS011;38119;52.710;6.398;2022-09-24T05:08:00;48.85;;;33.38;;
52124;SDS011;38119;52.710;6.398;2022-09-24T05:10:27;52.33;;;34.90;;
52124;SDS011;38119;52.710;6.398;2022-09-24T05:12:53;48.85;;;33.22;;
52124;SDS011;38119;52.710;6.398;2022-09-24T05:15:19;48.15;;;32.97;;
52124;SDS011;38119;52.710;6.398;2022-09-24T05:17:46;48.25;;;33.15;;
52124;SDS011;38119;52.710;6.398;2022-09-24T05:20:12;48.97;;;33.83;;
52124;SDS011;38119;52.710;6.398;2022-09-24T05:22:40;46.30;;;32.17;;
52124;SDS011;38119;52.710;6.398;2022-09-24T05:25:07;45.15;;;31.90;;
52124;SDS011;38119;52.710;6.398;2022-09-24T05:27:33;47.33;;;32.03;;
52124;SDS011;38119;52.710;6.398;2022-09-24T05:29:59;45.63;;;32.83;;
52124;SDS011;38119;52.710;6.398;2022-09-24T05:32:25;44.45;;;31.95;;
52124;SDS011;38119;52.710;6.398;2022-09-24T05:34:51;45.55;;;31.48;;
52124;SDS011;38119;52.710;6.398;2022-09-24T05:37:18;46.15;;;31.83;;
52124;SDS011;38119;52.710;6.398;2022-09-24T05:39:43;43.20;;;32.00;;
52124;SDS011;38119;52.710;6.398;2022-09-24T05:42:09;44.67;;;32.13;;
52124;SDS011;38119;52.710;6.398;2022-09-24T05:44:37;39.67;;;28.42;;
52124;SDS011;38119;52.710;6.398;2022-09-24T05:47:03;43.95;;;31.80;;
52124;SDS011;38119;52.710;6.398;2022-09-24T05:49:29;47.00;;;30.38;;
52124;SDS011;38119;52.710;6.398;2022-09-24T05:51:56;42.50;;;30.92;;
52124;SDS011;38119;52.710;6.398;2022-09-24T05:54:22;46.75;;;30.63;;
52124;SDS011;38119;52.710;6.398;2022-09-24T05:56:48;43.80;;;30.13;;
52124;SDS011;38119;52.710;6.398;2022-09-24T05:59:13;42.05;;;29.70;;
52124;SDS011;38119;52.710;6.398;2022-09-24T06:01:39;42.47;;;29.23;;
52124;SDS011;38119;52.710;6.398;2022-09-24T06:04:05;38.08;;;28.75;;
52124;SDS011;38119;52.710;6.398;2022-09-24T06:06:31;44.20;;;30.00;;
52124;SDS011;38119;52.710;6.398;2022-09-24T06:08:56;40.53;;;29.05;;
52124;SDS011;38119;52.710;6.398;2022-09-24T06:11:22;41.40;;;29.08;;
52124;SDS011;38119;52.710;6.398;2022-09-24T06:13:49;39.92;;;28.27;;
52124;SDS011;38119;52.710;6.398;2022-09-24T06:16:15;40.88;;;28.00;;
52124;SDS011;38119;52.710;6.398;2022-09-24T06:18:41;40.03;;;28.77;;
52124;SDS011;38119;52.710;6.398;2022-09-24T06:21:12;36.95;;;26.58;;
52124;SDS011;38119;52.710;6.398;2022-09-24T06:23:39;39.83;;;26.75;;
52124;SDS011;38119;52.710;6.398;2022-09-24T06:26:06;37.60;;;26.67;;
52124;SDS011;38119;52.710;6.398;2022-09-24T06:28:35;40.45;;;26.75;;
52124;SDS011;38119;52.710;6.398;2022-09-24T06:31:01;39.58;;;26.80;;
52124;SDS011;38119;52.710;6.398;2022-09-24T06:33:28;41.10;;;26.35;;
52124;SDS011;38119;52.710;6.398;2022-09-24T06:35:54;38.58;;;26.48;;
52124;SDS011;38119;52.710;6.398;2022-09-24T06:38:23;40.70;;;27.02;;
52124;SDS011;38119;52.710;6.398;2022-09-24T06:40:49;40.88;;;26.35;;
52124;SDS011;38119;52.710;6.398;2022-09-24T06:43:15;40.03;;;26.73;;
52124;SDS011;38119;52.710;6.398;2022-09-24T06:45:42;36.65;;;26.33;;
52124;SDS011;38119;52.710;6.398;2022-09-24T06:48:09;40.25;;;27.55;;
52124;SDS011;38119;52.710;6.398;2022-09-24T06:50:38;37.28;;;25.73;;
52124;SDS011;38119;52.710;6.398;2022-09-24T06:53:07;38.25;;;25.23;;
52124;SDS011;38119;52.710;6.398;2022-09-24T06:55:34;36.20;;;24.08;;
52124;SDS011;38119;52.710;6.398;2022-09-24T06:58:10;35.78;;;24.75;;
52124;SDS011;38119;52.710;6.398;2022-09-24T07:00:38;37.85;;;25.70;;
52124;SDS011;38119;52.710;6.398;2022-09-24T07:03:04;37.25;;;25.30;;
52124;SDS011;38119;52.710;6.398;2022-09-24T07:05:34;39.78;;;25.52;;
52124;SDS011;38119;52.710;6.398;2022-09-24T07:07:59;35.67;;;25.23;;
52124;SDS011;38119;52.710;6.398;2022-09-24T07:10:25;36.10;;;24.70;;
52124;SDS011;38119;52.710;6.398;2022-09-24T07:12:52;34.10;;;23.10;;
52124;SDS011;38119;52.710;6.398;2022-09-24T07:15:17;36.97;;;23.90;;
52124;SDS011;38119;52.710;6.398;2022-09-24T07:17:43;34.63;;;24.48;;
52124;SDS011;38119;52.710;6.398;2022-09-24T07:20:09;36.53;;;24.13;;
52124;SDS011;38119;52.710;6.398;2022-09-24T07:22:38;36.40;;;24.45;;
52124;SDS011;38119;52.710;6.398;2022-09-24T07:25:05;35.65;;;23.35;;
52124;SDS011;38119;52.710;6.398;2022-09-24T07:27:36;35.97;;;24.37;;
52124;SDS011;38119;52.710;6.398;2022-09-24T07:30:03;36.35;;;22.95;;
52124;SDS011;38119;52.710;6.398;2022-09-24T07:32:30;37.08;;;24.42;;
52124;SDS011;38119;52.710;6.398;2022-09-24T07:34:56;38.47;;;24.50;;
52124;SDS011;38119;52.710;6.398;2022-09-24T07:37:21;35.55;;;24.13;;
52124;SDS011;38119;52.710;6.398;2022-09-24T07:39:47;35.28;;;22.70;;
52124;SDS011;38119;52.710;6.398;2022-09-24T07:42:13;27.90;;;18.73;;
52124;SDS011;38119;52.710;6.398;2022-09-24T07:44:38;18.50;;;12.13;;
52124;SDS011;38119;52.710;6.398;2022-09-24T07:47:04;18.00;;;11.88;;
52124;SDS011;38119;52.710;6.398;2022-09-24T07:49:30;18.95;;;13.48;;
52124;SDS011;38119;52.710;6.398;2022-09-24T07:51:57;18.83;;;13.48;;
52124;SDS011;38119;52.710;6.398;2022-09-24T07:54:23;21.15;;;13.98;;
52124;SDS011;38119;52.710;6.398;2022-09-24T07:56:48;20.33;;;13.75;;
52124;SDS011;38119;52.710;6.398;2022-09-24T07:59:14;20.58;;;14.43;;
52124;SDS011;38119;52.710;6.398;2022-09-24T08:01:40;21.25;;;14.73;;
52124;SDS011;38119;52.710;6.398;2022-09-24T08:04:05;20.83;;;14.75;;
52124;SDS011;38119;52.710;6.398;2022-09-24T08:06:33;20.38;;;14.68;;
52124;SDS011;38119;52.710;6.398;2022-09-24T08:08:59;19.27;;;13.82;;
52124;SDS011;38119;52.710;6.398;2022-09-24T08:11:26;23.13;;;15.90;;
52124;SDS011;38119;52.710;6.398;2022-09-24T08:13:51;22.00;;;15.60;;
52124;SDS011;38119;52.710;6.398;2022-09-24T08:16:19;22.08;;;14.75;;
52124;SDS011;38119;52.710;6.398;2022-09-24T08:18:45;22.15;;;15.70;;
52124;SDS011;38119;52.710;6.398;2022-09-24T08:21:11;23.33;;;16.05;;
52124;SDS011;38119;52.710;6.398;2022-09-24T08:23:39;23.98;;;16.73;;
52124;SDS011;38119;52.710;6.398;2022-09-24T08:26:06;22.35;;;15.75;;
52124;SDS011;38119;52.710;6.398;2022-09-24T08:28:33;21.55;;;13.55;;
52124;SDS011;38119;52.710;6.398;2022-09-24T08:30:59;20.95;;;14.23;;
52124;SDS011;38119;52.710;6.398;2022-09-24T08:33:26;19.25;;;13.88;;
52124;SDS011;38119;52.710;6.398;2022-09-24T08:35:52;18.48;;;12.73;;
52124;SDS011;38119;52.710;6.398;2022-09-24T08:38:18;17.92;;;12.73;;
52124;SDS011;38119;52.710;6.398;2022-09-24T08:46:23;16.90;;;11.70;;
52124;SDS011;38119;52.710;6.398;2022-09-24T08:49:15;16.45;;;10.63;;
52124;SDS011;38119;52.710;6.398;2022-09-24T08:51:55;15.45;;;10.35;;
52124;SDS011;38119;52.710;6.398;2022-09-24T08:54:49;14.90;;;9.43;;
52124;SDS011;38119;52.710;6.398;2022-09-24T08:57:16;13.95;;;10.32;;
52124;SDS011;38119;52.710;6.398;2022-09-24T08:59:46;16.52;;;9.30;;
52124;SDS011;38119;52.710;6.398;2022-09-24T09:02:31;14.23;;;8.97;;
52124;SDS011;38119;52.710;6.398;2022-09-24T09:05:22;15.75;;;9.32;;
52124;SDS011;38119;52.710;6.398;2022-09-24T09:11:03;10.75;;;6.45;;
52124;SDS011;38119;52.710;6.398;2022-09-24T09:13:35;15.82;;;7.60;;
52124;SDS011;38119;52.710;6.398;2022-09-24T09:16:19;14.60;;;7.43;;
52124;SDS011;38119;52.710;6.398;2022-09-24T09:18:49;11.85;;;6.80;;
52124;SDS011;38119;52.710;6.398;2022-09-24T09:21:21;12.45;;;6.05;;
52124;SDS011;38119;52.710;6.398;2022-09-24T09:24:00;8.65;;;5.30;;
52124;SDS011;38119;52.710;6.398;2022-09-24T09:26:28;11.00;;;5.78;;
52124;SDS011;38119;52.710;6.398;2022-09-24T09:28:57;9.95;;;5.75;;
52124;SDS011;38119;52.710;6.398;2022-09-24T09:34:18;12.45;;;5.03;;
52124;SDS011;38119;52.710;6.398;2022-09-24T09:39:44;12.52;;;5.07;;
52124;SDS011;38119;52.710;6.398;2022-09-24T09:44:51;9.02;;;4.10;;
52124;SDS011;38119;52.710;6.398;2022-09-24T09:50:24;7.45;;;3.38;;
52124;SDS011;38119;52.710;6.398;2022-09-24T09:52:52;6.80;;;2.17;;
52124;SDS011;38119;52.710;6.398;2022-09-24T09:55:23;8.25;;;2.15;;
52124;SDS011;38119;52.710;6.398;2022-09-24T09:57:57;8.77;;;1.80;;
52124;SDS011;38119;52.710;6.398;2022-09-24T10:00:39;10.07;;;1.88;;
52124;SDS011;38119;52.710;6.398;2022-09-24T10:03:05;8.73;;;2.03;;
52124;SDS011;38119;52.710;6.398;2022-09-24T10:05:50;6.97;;;2.55;;
52124;SDS011;38119;52.710;6.398;2022-09-24T10:08:21;7.07;;;1.85;;
52124;SDS011;38119;52.710;6.398;2022-09-24T10:10:55;6.88;;;1.80;;
52124;SDS011;38119;52.710;6.398;2022-09-24T10:13:22;7.25;;;1.85;;
52124;SDS011;38119;52.710;6.398;2022-09-24T10:15:55;5.53;;;1.70;;
52124;SDS011;38119;52.710;6.398;2022-09-24T10:20:54;6.05;;;1.80;;
52124;SDS011;38119;52.710;6.398;2022-09-24T10:23:22;9.32;;;1.85;;
52124;SDS011;38119;52.710;6.398;2022-09-24T10:26:08;5.78;;;1.58;;
52124;SDS011;38119;52.710;6.398;2022-09-24T10:28:38;7.50;;;1.90;;
52124;SDS011;38119;52.710;6.398;2022-09-24T10:33:54;8.10;;;1.90;;
52124;SDS011;38119;52.710;6.398;2022-09-24T10:36:24;6.57;;;2.00;;
52124;SDS011;38119;52.710;6.398;2022-09-24T10:41:29;8.93;;;2.28;;
52124;SDS011;38119;52.710;6.398;2022-09-24T10:43:56;10.57;;;1.83;;
52124;SDS011;38119;52.710;6.398;2022-09-24T10:47:03;9.30;;;1.92;;
52124;SDS011;38119;52.710;6.398;2022-09-24T11:06:26;7.00;;;1.70;;
52124;SDS011;38119;52.710;6.398;2022-09-24T11:23:11;10.20;;;2.17;;
52124;SDS011;38119;52.710;6.398;2022-09-24T11:39:22;7.68;;;1.85;;
52124;SDS011;38119;52.710;6.398;2022-09-24T11:44:52;4.78;;;1.63;;
52124;SDS011;38119;52.710;6.398;2022-09-24T11:53:05;3.50;;;1.08;;
52124;SDS011;38119;52.710;6.398;2022-09-24T11:56:17;4.47;;;1.30;;
52124;SDS011;38119;52.710;6.398;2022-09-24T12:01:30;2.85;;;1.17;;
52124;SDS011;38119;52.710;6.398;2022-09-24T12:04:02;6.88;;;1.60;;
52124;SDS011;38119;52.710;6.398;2022-09-24T12:06:36;4.38;;;1.40;;
52124;SDS011;38119;52.710;6.398;2022-09-24T12:09:24;4.13;;;1.40;;
52124;SDS011;38119;52.710;6.398;2022-09-24T12:12:03;4.85;;;1.70;;
52124;SDS011;38119;52.710;6.398;2022-09-24T12:14:36;5.78;;;1.90;;
52124;SDS011;38119;52.710;6.398;2022-09-24T12:17:35;4.05;;;1.65;;
52124;SDS011;38119;52.710;6.398;2022-09-24T12:20:08;6.85;;;2.50;;
52124;SDS011;38119;52.710;6.398;2022-09-24T12:22:45;7.18;;;2.40;;
52124;SDS011;38119;52.710;6.398;2022-09-24T12:25:14;6.85;;;1.50;;
52124;SDS011;38119;52.710;6.398;2022-09-24T12:27:40;7.00;;;1.70;;
52124;SDS011;38119;52.710;6.398;2022-09-24T12:30:31;5.90;;;1.67;;
52124;SDS011;38119;52.710;6.398;2022-09-24T12:38:40;4.00;;;1.45;;
52124;SDS011;38119;52.710;6.398;2022-09-24T12:49:10;2.80;;;1.02;;
52124;SDS011;38119;52.710;6.398;2022-09-24T12:51:40;4.53;;;1.10;;
52124;SDS011;38119;52.710;6.398;2022-09-24T12:54:08;7.00;;;1.20;;
52124;SDS011;38119;52.710;6.398;2022-09-24T12:57:07;4.13;;;1.02;;
52124;SDS011;38119;52.710;6.398;2022-09-24T12:59:54;3.35;;;1.13;;
52124;SDS011;38119;52.710;6.398;2022-09-24T13:05:03;2.60;;;0.95;;
52124;SDS011;38119;52.710;6.398;2022-09-24T13:07:40;3.35;;;1.05;;
52124;SDS011;38119;52.710;6.398;2022-09-24T13:12:40;4.32;;;0.88;;
52124;SDS011;38119;52.710;6.398;2022-09-24T13:15:07;2.90;;;0.85;;
52124;SDS011;38119;52.710;6.398;2022-09-24T13:20:28;3.17;;;1.00;;
52124;SDS011;38119;52.710;6.398;2022-09-24T13:22:56;3.67;;;1.00;;
52124;SDS011;38119;52.710;6.398;2022-09-24T13:25:23;5.43;;;1.20;;
52124;SDS011;38119;52.710;6.398;2022-09-24T13:28:00;5.10;;;1.38;;
52124;SDS011;38119;52.710;6.398;2022-09-24T13:33:02;10.13;;;1.75;;
52124;SDS011;38119;52.710;6.398;2022-09-24T13:35:46;8.60;;;2.92;;
52124;SDS011;38119;52.710;6.398;2022-09-24T13:38:29;4.72;;;2.13;;
52124;SDS011;38119;52.710;6.398;2022-09-24T13:41:03;7.10;;;2.20;;
52124;SDS011;38119;52.710;6.398;2022-09-24T13:43:57;12.95;;;2.30;;
52124;SDS011;38119;52.710;6.398;2022-09-24T13:46:27;7.30;;;1.85;;
52124;SDS011;38119;52.710;6.398;2022-09-24T13:48:57;7.68;;;1.90;;
52124;SDS011;38119;52.710;6.398;2022-09-24T13:51:27;11.23;;;3.20;;
52124;SDS011;38119;52.710;6.398;2022-09-24T13:54:02;8.52;;;2.80;;
52124;SDS011;38119;52.710;6.398;2022-09-24T13:56:34;8.77;;;3.17;;
52124;SDS011;38119;52.710;6.398;2022-09-24T13:59:04;6.40;;;2.17;;
52124;SDS011;38119;52.710;6.398;2022-09-24T14:01:38;9.52;;;1.95;;
52124;SDS011;38119;52.710;6.398;2022-09-24T14:04:20;5.68;;;1.38;;
52124;SDS011;38119;52.710;6.398;2022-09-24T14:06:49;5.30;;;1.38;;
52124;SDS011;38119;52.710;6.398;2022-09-24T14:09:32;5.22;;;1.40;;
52124;SDS011;38119;52.710;6.398;2022-09-24T14:12:13;9.02;;;2.00;;
52124;SDS011;38119;52.710;6.398;2022-09-24T14:14:58;8.00;;;2.28;;
52124;SDS011;38119;52.710;6.398;2022-09-24T14:17:24;8.50;;;2.63;;
52124;SDS011;38119;52.710;6.398;2022-09-24T14:19:56;9.23;;;3.67;;
52124;SDS011;38119;52.710;6.398;2022-09-24T14:22:23;9.73;;;3.75;;
52124;SDS011;38119;52.710;6.398;2022-09-24T14:27:39;7.35;;;2.00;;
52124;SDS011;38119;52.710;6.398;2022-09-24T14:32:52;3.30;;;1.67;;
52124;SDS011;38119;52.710;6.398;2022-09-24T14:35:29;5.45;;;1.40;;
52124;SDS011;38119;52.710;6.398;2022-09-24T14:37:58;3.10;;;1.50;;
52124;SDS011;38119;52.710;6.398;2022-09-24T14:40:54;3.80;;;1.30;;
52124;SDS011;38119;52.710;6.398;2022-09-24T14:43:36;2.05;;;1.10;;
52124;SDS011;38119;52.710;6.398;2022-09-24T14:46:23;4.93;;;1.40;;
52124;SDS011;38119;52.710;6.398;2022-09-24T14:49:21;4.82;;;0.90;;
52124;SDS011;38119;52.710;6.398;2022-09-24T14:52:01;4.40;;;1.20;;
52124;SDS011;38119;52.710;6.398;2022-09-24T14:54:37;4.25;;;1.40;;
52124;SDS011;38119;52.710;6.398;2022-09-24T14:57:08;2.97;;;1.10;;
52124;SDS011;38119;52.710;6.398;2022-09-24T14:59:35;8.52;;;1.30;;
52124;SDS011;38119;52.710;6.398;2022-09-24T15:02:05;5.22;;;1.20;;
52124;SDS011;38119;52.710;6.398;2022-09-24T15:04:42;4.82;;;1.33;;
52124;SDS011;38119;52.710;6.398;2022-09-24T15:07:17;3.55;;;1.10;;
52124;SDS011;38119;52.710;6.398;2022-09-24T15:09:49;5.32;;;1.30;;
52124;SDS011;38119;52.710;6.398;2022-09-24T15:12:20;4.40;;;1.10;;
52124;SDS011;38119;52.710;6.398;2022-09-24T15:14:55;4.68;;;1.10;;
52124;SDS011;38119;52.710;6.398;2022-09-24T15:17:23;3.83;;;1.10;;
52124;SDS011;38119;52.710;6.398;2022-09-24T15:19:57;5.20;;;1.42;;
52124;SDS011;38119;52.710;6.398;2022-09-24T15:22:24;7.07;;;1.30;;
52124;SDS011;38119;52.710;6.398;2022-09-24T15:24:54;4.93;;;1.55;;
52124;SDS011;38119;52.710;6.398;2022-09-24T15:27:22;3.67;;;1.17;;
52124;SDS011;38119;52.710;6.398;2022-09-24T15:29:56;6.85;;;1.40;;
52124;SDS011;38119;52.710;6.398;2022-09-24T15:32:24;4.82;;;1.30;;
52124;SDS011;38119;52.710;6.398;2022-09-24T15:34:51;8.40;;;1.80;;
52124;SDS011;38119;52.710;6.398;2022-09-24T15:37:21;5.97;;;1.20;;
52124;SDS011;38119;52.710;6.398;2022-09-24T15:39:52;5.43;;;1.50;;
52124;SDS011;38119;52.710;6.398;2022-09-24T15:42:22;5.78;;;1.55;;
52124;SDS011;38119;52.710;6.398;2022-09-24T15:44:49;6.40;;;1.23;;
52124;SDS011;38119;52.710;6.398;2022-09-24T15:47:16;8.68;;;2.13;;
52124;SDS011;38119;52.710;6.398;2022-09-24T15:49:42;4.38;;;1.55;;
52124;SDS011;38119;52.710;6.398;2022-09-24T15:52:10;7.90;;;1.70;;
52124;SDS011;38119;52.710;6.398;2022-09-24T15:54:56;8.15;;;2.40;;
52124;SDS011;38119;52.710;6.398;2022-09-24T15:57:24;7.25;;;2.42;;
52124;SDS011;38119;52.710;6.398;2022-09-24T15:59:52;9.85;;;2.83;;
52124;SDS011;38119;52.710;6.398;2022-09-24T16:04:52;9.48;;;3.72;;
52124;SDS011;38119;52.710;6.398;2022-09-24T16:07:17;9.50;;;3.75;;
52124;SDS011;38119;52.710;6.398;2022-09-24T16:09:43;9.52;;;3.85;;
52124;SDS011;38119;52.710;6.398;2022-09-24T16:12:15;8.07;;;3.28;;
52124;SDS011;38119;52.710;6.398;2022-09-24T16:14:42;10.88;;;4.10;;
52124;SDS011;38119;52.710;6.398;2022-09-24T16:17:08;8.60;;;3.33;;
52124;SDS011;38119;52.710;6.398;2022-09-24T16:19:35;8.88;;;2.83;;
52124;SDS011;38119;52.710;6.398;2022-09-24T16:22:00;8.55;;;3.28;;
52124;SDS011;38119;52.710;6.398;2022-09-24T16:24:26;9.35;;;2.72;;
52124;SDS011;38119;52.710;6.398;2022-09-24T16:26:55;8.05;;;3.60;;
52124;SDS011;38119;52.710;6.398;2022-09-24T16:29:21;10.88;;;4.50;;
52124;SDS011;38119;52.710;6.398;2022-09-24T16:31:46;12.68;;;4.00;;
52124;SDS011;38119;52.710;6.398;2022-09-24T16:34:13;6.47;;;2.45;;
52124;SDS011;38119;52.710;6.398;2022-09-24T16:36:39;8.50;;;2.67;;
52124;SDS011;38119;52.710;6.398;2022-09-24T16:39:04;7.85;;;3.75;;
52124;SDS011;38119;52.710;6.398;2022-09-24T16:41:30;7.80;;;3.20;;
52124;SDS011;38119;52.710;6.398;2022-09-24T16:43:58;7.60;;;3.10;;
52124;SDS011;38119;52.710;6.398;2022-09-24T16:46:25;10.20;;;3.78;;
52124;SDS011;38119;52.710;6.398;2022-09-24T16:48:51;8.75;;;3.47;;
52124;SDS011;38119;52.710;6.398;2022-09-24T16:51:17;12.00;;;3.10;;